Aviation Digital Data Service (ADDS)

Output produced by METARs form (0248 UTC 22 February 2019)
found at http://www.aviationweather.gov/metar/data/
 
Forecast for: PAFA (FAIRBANKS , AK, US)
Text: PAFA 212326Z 2200/2306 VRB04KT P6SM SCT050
Forecast period: 0000 UTC 22 February 2019 to 0600 UTC 23 February 2019
Forecast type: FROM: standard forecast or significant change
Winds: variable direction winds at 5 MPH (4 knots; 2.1 m/s)
Visibility: 6 or more miles 10+ km)
Ceiling: at least 12,000 feet AGL
Clouds: scattered clouds at 5000 feet AGL
Weather: no significant weather forecast for this period